createdAt,value
2023-02-01T00:00:07.453Z,101969.59
2023-02-01T00:00:38.799Z,101966.91
2023-02-01T00:01:10.827Z,101964.50
2023-02-01T00:01:42.346Z,101957.50
2023-02-01T00:02:13.958Z,101964.50
2023-02-01T00:02:45.714Z,101959.59
2023-02-01T00:03:19.855Z,101950.69
2023-02-01T00:03:51.417Z,101956.28
2023-02-01T00:04:23.744Z,101954.69
2023-02-01T00:04:55.104Z,101952.00
2023-02-01T00:05:26.516Z,101945.00
2023-02-01T00:05:59.199Z,101956.28
2023-02-01T00:06:30.876Z,101947.09
2023-02-01T00:07:02.428Z,101938.00
2023-02-01T00:07:33.971Z,101951.38
2023-02-01T00:08:05.771Z,101948.19
2023-02-01T00:08:37.233Z,101943.88
2023-02-01T00:09:08.906Z,101941.19
2023-02-01T00:09:40.342Z,101945.97
2023-02-01T00:10:11.810Z,101949.16
2023-02-01T00:10:43.148Z,101950.75
2023-02-01T00:11:14.787Z,101953.13
2023-02-01T00:11:46.408Z,101948.03
2023-02-01T00:12:17.833Z,101951.53
2023-02-01T00:12:49.281Z,101952.03
2023-02-01T00:13:20.749Z,101952.19
2023-02-01T00:13:52.801Z,101950.13
2023-02-01T00:14:24.265Z,101952.34
2023-02-01T00:14:55.706Z,101963.03
2023-02-01T00:15:27.380Z,101958.44
2023-02-01T00:16:09.340Z,101954.63
2023-02-01T00:16:40.901Z,101958.13
2023-02-01T00:17:12.263Z,101950.81
2023-02-01T00:17:43.694Z,101963.22
2023-02-01T00:18:15.264Z,101962.91
2023-02-01T00:18:47.842Z,101955.31
2023-02-01T00:19:19.338Z,101958.00
2023-02-01T00:19:50.748Z,101956.91
2023-02-01T00:20:22.597Z,101956.09
2023-02-01T00:20:54.219Z,101958.50
2023-02-01T00:21:25.692Z,101954.69
2023-02-01T00:21:57.089Z,101939.41
2023-02-01T00:22:28.536Z,101956.59
2023-02-01T00:23:00.005Z,101942.91
2023-02-01T00:23:35.856Z,101955.50
2023-02-01T00:24:08.109Z,101946.09
2023-02-01T00:24:39.521Z,101953.25
2023-02-01T00:25:10.897Z,101946.28
2023-02-01T00:25:42.581Z,101949.13
2023-02-01T00:26:31.165Z,101941.84
2023-02-01T00:27:02.642Z,101935.78
2023-02-01T00:27:34.108Z,101938.94
2023-02-01T00:28:05.842Z,101936.75
2023-02-01T00:28:37.708Z,101931.66
2023-02-01T00:29:15.855Z,101944.22
2023-02-01T00:29:49.249Z,101932.63
2023-02-01T00:30:21.157Z,101936.13
2023-02-01T00:31:03.493Z,101937.22
2023-02-01T00:31:35.077Z,101937.22
2023-02-01T00:32:06.580Z,101942.03
2023-02-01T00:32:38.148Z,101940.59
2023-02-01T00:33:09.670Z,101945.69
2023-02-01T00:33:41.322Z,101941.09
2023-02-01T00:34:15.021Z,101945.09
2023-02-01T00:34:46.469Z,101940.78
2023-02-01T00:35:17.938Z,101938.88
2023-02-01T00:35:49.380Z,101939.69
2023-02-01T00:36:21.154Z,101936.19
2023-02-01T00:36:52.597Z,101924.91
2023-02-01T00:37:24.293Z,101939.19
2023-02-01T00:37:55.765Z,101938.59
2023-02-01T00:38:28.696Z,101930.19
2023-02-01T00:39:00.186Z,101934.28
2023-02-01T00:39:31.634Z,101939.06
2023-02-01T00:40:52.050Z,101942.09
2023-02-01T00:41:23.939Z,101942.25
2023-02-01T00:41:55.311Z,101940.19
2023-02-01T00:42:26.730Z,101939.06
2023-02-01T00:42:58.820Z,101944.94
2023-02-01T00:43:32.144Z,101944.31
2023-02-01T00:44:04.093Z,101944.31
2023-02-01T00:44:36.261Z,101942.41
2023-02-01T00:45:08.271Z,101939.72
2023-02-01T00:45:39.698Z,101949.72
2023-02-01T00:46:12.107Z,101947.03
2023-02-01T00:46:43.639Z,101938.63
2023-02-01T00:47:15.058Z,101938.44
2023-02-01T00:47:46.658Z,101944.03
2023-02-01T00:48:18.083Z,101952.31
2023-02-01T00:48:50.553Z,101951.03
2023-02-01T00:49:22.091Z,101942.13
2023-02-01T00:49:53.569Z,101937.81
2023-02-01T00:50:25.153Z,101944.81
2023-02-01T00:51:04.170Z,101940.22
2023-02-01T00:51:35.713Z,101937.50
2023-02-01T00:52:07.163Z,101936.41
2023-02-01T00:52:38.566Z,101938.63
2023-02-01T00:53:11.198Z,101943.09
2023-02-01T00:53:42.839Z,101936.72
2023-02-01T00:54:14.361Z,101941.50
2023-02-01T00:54:45.805Z,101941.81
2023-02-01T00:55:17.563Z,101945.00
2023-02-01T00:55:49.599Z,101937.69
2023-02-01T00:56:21.433Z,101942.28
2023-02-01T00:56:52.898Z,101947.41
2023-02-01T00:57:24.420Z,101943.09
2023-02-01T00:58:46.088Z,101945.00
2023-02-01T00:59:17.667Z,101944.19
2023-02-01T00:59:49.120Z,101949.00
2023-02-01T01:00:20.993Z,101942.78
2023-02-01T01:01:03.539Z,101948.19
2023-02-01T01:01:35.043Z,101939.28
2023-02-01T01:02:06.633Z,101944.69
2023-02-01T01:02:38.026Z,101941.69
2023-02-01T01:03:18.769Z,101936.88
2023-02-01T01:03:53.205Z,101945.66
2023-02-01T01:04:24.795Z,101949.97
2023-02-01T01:04:56.218Z,101945.19
2023-02-01T01:05:28.697Z,101933.75
2023-02-01T01:06:02.093Z,101942.81
2023-02-01T01:06:34.789Z,101949.34
2023-02-01T01:07:06.257Z,101939.34
2023-02-01T01:07:37.670Z,101930.91
2023-02-01T01:08:09.099Z,101937.75
2023-02-01T01:08:42.067Z,101942.50
2023-02-01T01:09:13.570Z,101945.19
2023-02-01T01:09:45.426Z,101937.91
2023-02-01T01:10:17.232Z,101935.19
2023-02-01T01:10:50.295Z,101938.22
2023-02-01T01:11:25.734Z,101935.06
2023-02-01T01:11:57.219Z,101942.06
2023-02-01T01:12:28.715Z,101934.44
2023-02-01T01:13:02.863Z,101928.84
2023-02-01T01:13:35.051Z,101933.66
2023-02-01T01:14:44.685Z,101932.41
2023-02-01T01:15:16.277Z,101918.91
2023-02-01T01:15:47.883Z,101925.41
2023-02-01T01:16:23.717Z,101935.13
2023-02-01T01:16:55.286Z,101927.94
2023-02-01T01:17:26.778Z,101920.31
2023-02-01T01:17:58.244Z,101913.50
2023-02-01T01:18:31.258Z,101906.31
2023-02-01T01:19:03.423Z,101907.91
2023-02-01T01:19:34.949Z,101905.19
2023-02-01T01:20:06.812Z,101913.81
2023-02-01T01:20:40.802Z,101907.09
2023-02-01T01:21:14.250Z,101918.59
2023-02-01T01:21:45.722Z,101922.88
2023-02-01T01:22:17.196Z,101917.59
2023-02-01T01:22:49.311Z,101924.00
2023-02-01T01:23:22.937Z,101923.50
2023-02-01T01:23:54.674Z,101921.91
2023-02-01T01:24:26.191Z,101916.19
2023-02-01T01:24:57.644Z,101920.81
2023-02-01T01:25:29.127Z,101928.75
2023-02-01T01:26:01.280Z,101923.34
2023-02-01T01:26:32.823Z,101921.44
2023-02-01T01:27:04.346Z,101914.59
2023-02-01T01:27:35.764Z,101921.28
2023-02-01T01:28:08.132Z,101910.94
2023-02-01T01:28:39.551Z,101925.25
2023-02-01T01:29:11.962Z,101933.03
2023-02-01T01:29:43.398Z,101915.09
2023-02-01T01:30:14.990Z,101919.53
2023-02-01T01:30:46.523Z,101919.84
2023-02-01T01:31:19.208Z,101928.13
2023-02-01T01:31:50.767Z,101911.72
2023-02-01T01:32:22.971Z,101916.22
2023-02-01T01:32:54.471Z,101920.50
2023-02-01T01:33:25.911Z,101919.72
2023-02-01T01:33:59.679Z,101916.50
2023-02-01T01:34:31.118Z,101909.03
2023-02-01T01:35:03.415Z,101910.94
2023-02-01T01:35:37.591Z,101916.03
2023-02-01T01:36:12.869Z,101911.09
2023-02-01T01:36:44.327Z,101909.19
2023-02-01T01:37:15.721Z,101904.41
2023-02-01T01:37:47.316Z,101904.91
2023-02-01T01:38:18.836Z,101918.09
2023-02-01T01:38:50.313Z,101910.47
2023-02-01T01:39:21.760Z,101906.00
2023-02-01T01:39:53.153Z,101914.47
2023-02-01T01:40:24.717Z,101914.47
2023-02-01T01:40:56.166Z,101905.69
2023-02-01T01:41:32.125Z,101910.66
2023-02-01T01:42:03.549Z,101914.47
2023-02-01T01:42:43.542Z,101917.50
2023-02-01T01:43:23.586Z,101907.47
2023-02-01T01:44:00.205Z,101902.56
2023-02-01T01:44:59.156Z,101920.53
2023-02-01T01:45:33.622Z,101909.72
2023-02-01T01:46:05.069Z,101918.63
2023-02-01T01:46:38.702Z,101918.63
2023-02-01T01:47:10.825Z,101908.94
2023-02-01T01:47:49.787Z,101928.34
2023-02-01T01:48:30.919Z,101921.34
2023-02-01T01:49:07.977Z,101925.63
2023-02-01T01:49:39.457Z,101915.94
2023-02-01T01:50:17.511Z,101926.75
2023-02-01T01:50:58.311Z,101927.53
2023-02-01T01:51:32.415Z,101922.13
2023-02-01T01:52:04.157Z,101919.44
2023-02-01T01:52:38.550Z,101918.31
2023-02-01T01:53:15.700Z,101911.00
2023-02-01T01:53:57.951Z,101911.81
2023-02-01T01:54:35.308Z,101903.53
2023-02-01T01:55:07.663Z,101897.81
2023-02-01T01:55:44.854Z,101905.13
2023-02-01T01:56:16.763Z,101897.81
2023-02-01T01:56:57.948Z,101904.94
2023-02-01T01:57:39.126Z,101908.75
2023-02-01T01:58:18.656Z,101904.50
2023-02-01T01:58:50.238Z,101901.13
2023-02-01T01:59:24.659Z,101898.91
2023-02-01T02:00:22.619Z,101905.91
2023-02-01T02:00:55.296Z,101903.22
2023-02-01T02:01:27.381Z,101895.09
2023-02-01T02:01:58.850Z,101904.81
2023-02-01T02:02:31.258Z,101905.28
2023-02-01T02:03:17.469Z,101896.06
2023-02-01T02:03:49.450Z,101903.88
2023-02-01T02:04:21.313Z,101883.50
2023-02-01T02:04:52.812Z,101894.97
2023-02-01T02:05:24.373Z,101885.25
2023-02-01T02:06:00.072Z,101905.47
2023-02-01T02:06:46.509Z,101891.16
2023-02-01T02:07:24.372Z,101891.63
2023-02-01T02:07:59.110Z,101888.94
2023-02-01T02:08:30.558Z,101892.75
2023-02-01T02:09:04.288Z,101882.41
2023-02-01T02:09:38.520Z,101891.94
2023-02-01T02:10:12.468Z,101893.72
2023-02-01T02:11:02.647Z,101889.09
2023-02-01T02:11:34.170Z,101887.97
2023-02-01T02:12:05.568Z,101884.00
2023-02-01T02:12:39.949Z,101886.06
2023-02-01T02:13:11.768Z,101887.31
2023-02-01T02:13:47.105Z,101890.03
2023-02-01T02:14:22.146Z,101885.28
2023-02-01T02:14:53.873Z,101889.72
2023-02-01T02:15:25.331Z,101893.53
2023-02-01T02:16:26.837Z,101895.63
2023-02-01T02:17:21.306Z,101896.41
2023-02-01T02:18:01.804Z,101892.09
2023-02-01T02:18:41.159Z,101889.41
2023-02-01T02:19:40.061Z,101895.94
2023-02-01T02:20:37.103Z,101895.13
2023-02-01T02:21:36.377Z,101893.22
2023-02-01T02:22:24.106Z,101879.69
2023-02-01T02:23:01.435Z,101874.28
2023-02-01T02:23:48.623Z,101888.59
2023-02-01T02:25:03.157Z,101885.91
2023-02-01T02:25:59.180Z,101873.19
2023-02-01T02:27:01.499Z,101885.91
2023-02-01T02:28:07.906Z,101872.06
2023-02-01T02:29:01.644Z,101869.84
2023-02-01T02:29:44.953Z,101874.13
2023-02-01T02:30:25.334Z,101872.22
2023-02-01T02:31:26.186Z,101865.72
2023-02-01T02:32:39.311Z,101880.81
2023-02-01T02:33:35.644Z,101874.63
2023-02-01T02:34:14.794Z,101873.81
2023-02-01T02:35:02.894Z,101866.81
2023-02-01T02:35:45.862Z,101870.31
2023-02-01T02:36:39.743Z,101878.13
2023-02-01T02:37:13.715Z,101870.00
2023-02-01T02:38:07.649Z,101868.91
2023-02-01T02:39:05.080Z,101874.00
2023-02-01T02:40:07.470Z,101858.06
2023-02-01T02:42:31.684Z,101867.16
2023-02-01T02:43:57.438Z,101856.00
2023-02-01T02:45:15.832Z,101855.66
2023-02-01T02:46:34.804Z,101849.94
2023-02-01T02:47:26.065Z,101847.25
2023-02-01T02:48:13.491Z,101870.47
2023-02-01T02:48:50.063Z,101862.03
2023-02-01T02:49:50.361Z,101855.53
2023-02-01T02:51:02.747Z,101867.63
2023-02-01T02:53:27.555Z,101862.53
2023-02-01T02:54:25.563Z,101860.94
2023-02-01T02:54:58.701Z,101858.53
2023-02-01T02:55:34.454Z,101858.53
2023-02-01T02:56:27.296Z,101858.53
2023-02-01T02:57:20.121Z,101854.25
2023-02-01T02:58:10.677Z,101850.44
2023-02-01T02:59:03.623Z,101840.41
2023-02-01T02:59:56.269Z,101842.00
2023-02-01T03:00:53.001Z,101842.47
2023-02-01T03:01:43.264Z,101837.06
2023-02-01T03:02:35.174Z,101834.34
2023-02-01T03:03:25.739Z,101817.31
2023-02-01T03:04:09.442Z,101828.63
2023-02-01T03:04:41.471Z,101829.09
2023-02-01T03:05:13.580Z,101828.31
2023-02-01T03:05:47.641Z,101829.41
2023-02-01T03:06:19.900Z,101826.41
2023-02-01T03:06:53.305Z,101827.50
2023-02-01T03:08:46.457Z,101824.00
2023-02-01T03:09:28.391Z,101829.41
2023-02-01T03:10:05.202Z,101826.22
2023-02-01T03:10:59.699Z,101819.22
2023-02-01T03:11:53.716Z,101829.75
2023-02-01T03:12:44.031Z,101839.75
2023-02-01T03:13:27.396Z,101843.59
2023-02-01T03:14:03.388Z,101831.16
2023-02-01T03:14:37.286Z,101832.28
2023-02-01T03:15:13.618Z,101831.47
2023-02-01T03:16:07.567Z,101826.88
2023-02-01T03:16:50.652Z,101835.31
2023-02-01T03:17:29.976Z,101833.22
2023-02-01T03:18:04.016Z,101838.31
2023-02-01T03:18:47.406Z,101844.84
2023-02-01T03:19:31.065Z,101835.16
2023-02-01T03:20:04.745Z,101837.88
2023-02-01T03:20:39.579Z,101835.94
2023-02-01T03:21:17.339Z,101837.09
2023-02-01T03:21:56.796Z,101832.47
2023-02-01T03:22:32.589Z,101825.13
2023-02-01T03:23:07.479Z,101820.50
2023-02-01T03:23:39.619Z,101825.91
2023-02-01T03:24:17.088Z,101830.53
2023-02-01T03:24:56.115Z,101832.13
2023-02-01T03:25:33.105Z,101826.25
2023-02-01T03:26:09.258Z,101825.13
2023-02-01T03:26:44.724Z,101819.56
2023-02-01T03:27:42.378Z,101831.00
2023-02-01T03:28:14.011Z,101834.81
2023-02-01T03:28:52.957Z,101816.53
2023-02-01T03:29:36.158Z,101827.69
2023-02-01T03:30:26.872Z,101824.81
2023-02-01T03:30:58.685Z,101814.16
2023-02-01T03:31:30.483Z,101831.50
2023-02-01T03:32:02.396Z,101821.78
2023-02-01T03:32:57.720Z,101809.84
2023-02-01T03:33:31.259Z,101825.78
2023-02-01T03:34:02.954Z,101817.66
2023-02-01T03:34:34.937Z,101815.28
2023-02-01T03:35:06.738Z,101824.97
2023-02-01T03:35:57.985Z,101818.47
2023-02-01T03:36:52.511Z,101826.88
2023-02-01T03:37:27.425Z,101823.38
2023-02-01T03:38:45.076Z,101828.81
2023-02-01T03:39:22.293Z,101832.63
2023-02-01T03:40:09.072Z,101826.41
2023-02-01T03:40:42.541Z,101829.13
2023-02-01T03:41:42.749Z,101833.41
2023-02-01T03:42:37.474Z,101838.34
2023-02-01T03:43:13.589Z,101845.66
2023-02-01T03:43:57.753Z,101849.16
2023-02-01T03:44:34.683Z,101849.16
2023-02-01T03:45:14.215Z,101838.34
2023-02-01T03:45:53.935Z,101842.78
2023-02-01T03:46:33.997Z,101840.88
2023-02-01T03:47:12.452Z,101831.97
2023-02-01T03:47:48.304Z,101831.81
2023-02-01T03:48:21.594Z,101839.28
2023-02-01T03:49:47.470Z,101820.66
2023-02-01T03:50:22.871Z,101836.59
2023-02-01T03:50:58.869Z,101833.09
2023-02-01T03:51:31.014Z,101836.91
2023-02-01T03:52:04.497Z,101836.91
2023-02-01T03:52:42.506Z,101834.03
2023-02-01T03:53:19.179Z,101829.41
2023-02-01T03:53:52.137Z,101836.09
2023-02-01T03:54:25.165Z,101832.91
2023-02-01T03:54:58.178Z,101838.00
2023-02-01T03:55:31.276Z,101842.31
2023-02-01T03:56:03.560Z,101849.47
2023-02-01T03:56:38.822Z,101834.03
2023-02-01T03:57:15.046Z,101840.41
2023-02-01T03:57:54.168Z,101834.03
2023-02-01T03:58:25.703Z,101846.59
2023-02-01T03:59:00.435Z,101845.00
2023-02-01T03:59:31.948Z,101826.72
2023-02-01T04:00:09.720Z,101836.59
2023-02-01T04:00:42.865Z,101840.41
2023-02-01T04:01:14.348Z,101823.69
2023-02-01T04:01:45.737Z,101829.41
2023-02-01T04:02:17.296Z,101834.69
2023-02-01T04:03:38.077Z,101836.59
2023-02-01T04:04:10.365Z,101836.59
2023-02-01T04:04:41.822Z,101835.47
2023-02-01T04:05:13.384Z,101831.97
2023-02-01T04:05:44.847Z,101831.97
2023-02-01T04:06:16.222Z,101845.19
2023-02-01T04:06:51.227Z,101838.19
2023-02-01T04:07:22.658Z,101834.69
2023-02-01T04:07:55.256Z,101829.75
2023-02-01T04:08:26.877Z,101837.06
2023-02-01T04:08:58.276Z,101827.53
2023-02-01T04:09:30.033Z,101830.22
2023-02-01T04:10:01.578Z,101828.31
2023-02-01T04:10:32.997Z,101828.00
2023-02-01T04:11:04.329Z,101825.63
2023-02-01T04:11:35.655Z,101829.91
2023-02-01T04:12:07.235Z,101835.31
2023-02-01T04:12:39.070Z,101835.00
2023-02-01T04:13:10.894Z,101827.69
2023-02-01T04:13:42.353Z,101824.50
2023-02-01T04:14:13.767Z,101826.09
2023-02-01T04:14:45.133Z,101831.97
2023-02-01T04:15:16.557Z,101829.13
2023-02-01T04:15:50.650Z,101829.13
2023-02-01T04:16:22.245Z,101822.75
2023-02-01T04:16:53.851Z,101827.22
2023-02-01T04:17:25.371Z,101830.88
2023-02-01T04:17:56.805Z,101829.28
2023-02-01T04:18:28.260Z,101834.69
2023-02-01T04:19:00.042Z,101836.72
2023-02-01T04:19:31.386Z,101831.66
2023-02-01T04:20:03.155Z,101843.72
2023-02-01T04:20:34.719Z,101827.50
2023-02-01T04:21:06.506Z,101841.03
2023-02-01T04:21:37.986Z,101831.31
2023-02-01T04:22:09.437Z,101828.78
2023-02-01T04:22:40.973Z,101841.03
2023-02-01T04:23:12.322Z,101831.81
2023-02-01T04:23:43.729Z,101847.41
2023-02-01T04:24:15.124Z,101846.59
2023-02-01T04:24:46.555Z,101844.69
2023-02-01T04:25:18.346Z,101846.59
2023-02-01T04:25:49.826Z,101839.59
2023-02-01T04:26:22.412Z,101847.72
2023-02-01T04:26:53.803Z,101846.59
2023-02-01T04:27:28.048Z,101853.28
2023-02-01T04:28:00.367Z,101845.00
2023-02-01T04:28:32.099Z,101854.88
2023-02-01T04:29:03.613Z,101849.78
2023-02-01T04:29:35.208Z,101853.94
2023-02-01T04:30:10.537Z,101859.81
2023-02-01T04:30:42.029Z,101847.72
2023-02-01T04:31:13.494Z,101851.53
2023-02-01T04:31:45.065Z,101848.69
2023-02-01T04:32:17.500Z,101858.72
2023-02-01T04:32:48.947Z,101853.28
2023-02-01T04:33:20.397Z,101835.16
2023-02-01T04:33:53.823Z,101846.78
2023-02-01T04:34:26.005Z,101846.78
2023-02-01T04:34:57.416Z,101837.53
2023-02-01T04:35:28.773Z,101841.03
2023-02-01T04:36:03.218Z,101846.13
2023-02-01T04:36:34.611Z,101834.84
2023-02-01T04:37:06.063Z,101838.03
2023-02-01T04:37:37.533Z,101834.84
2023-02-01T04:38:09.010Z,101843.13
2023-02-01T04:38:40.474Z,101835.00
2023-02-01T04:39:12.336Z,101834.50
2023-02-01T04:39:43.683Z,101832.59
2023-02-01T04:40:15.217Z,101835.78
2023-02-01T04:40:48.592Z,101831.50
2023-02-01T04:41:21.162Z,101829.91
2023-02-01T04:41:53.117Z,101830.38
2023-02-01T04:42:24.535Z,101825.13
2023-02-01T04:42:55.993Z,101827.50
2023-02-01T04:43:27.626Z,101828.00
2023-02-01T04:43:59.106Z,101829.91
2023-02-01T04:44:30.876Z,101829.41
2023-02-01T04:45:02.404Z,101831.81
2023-02-01T04:45:33.847Z,101822.72
2023-02-01T04:46:05.732Z,101825.13
2023-02-01T04:46:37.111Z,101832.91
2023-02-01T04:47:08.834Z,101820.81
2023-02-01T04:47:40.659Z,101826.72
2023-02-01T04:48:12.195Z,101830.53
2023-02-01T04:48:43.691Z,101829.56
2023-02-01T04:49:16.242Z,101834.03
2023-02-01T04:49:47.723Z,101839.13
2023-02-01T04:50:19.352Z,101824.97
2023-02-01T04:50:50.779Z,101833.56
2023-02-01T04:51:22.667Z,101824.97
2023-02-01T04:51:54.067Z,101841.69
2023-02-01T04:52:25.487Z,101813.66
2023-02-01T04:52:56.928Z,101835.16
2023-02-01T04:53:28.563Z,101825.75
2023-02-01T04:53:59.956Z,101827.19
2023-02-01T04:54:31.317Z,101819.88
2023-02-01T04:55:03.851Z,101838.16
2023-02-01T04:55:35.298Z,101820.34
2023-02-01T04:56:07.503Z,101822.41
2023-02-01T04:56:39.384Z,101829.56
2023-02-01T04:57:12.172Z,101817.16
2023-02-01T04:57:43.532Z,101823.19
2023-02-01T04:58:14.914Z,101819.38
2023-02-01T04:58:46.321Z,101819.38
2023-02-01T04:59:18.076Z,101830.53
2023-02-01T04:59:49.531Z,101810.81
2023-02-01T05:00:21.496Z,101825.91
2023-02-01T05:00:53.094Z,101831.31
2023-02-01T05:01:25.556Z,101827.38
2023-02-01T05:01:57.045Z,101829.41
2023-02-01T05:02:28.541Z,101839.00
2023-02-01T05:03:09.102Z,101822.28
2023-02-01T05:03:40.604Z,101824.97
2023-02-01T05:04:12.137Z,101827.22
2023-02-01T05:04:43.634Z,101826.56
2023-02-01T05:05:15.121Z,101829.28
2023-02-01T05:05:48.977Z,101831.50
2023-02-01T05:06:20.707Z,101827.69
2023-02-01T05:06:52.130Z,101818.59
2023-02-01T05:07:23.745Z,101825.28
2023-02-01T05:07:55.225Z,101827.22
2023-02-01T05:08:27.951Z,101827.69
2023-02-01T05:08:59.381Z,101810.50
2023-02-01T05:09:30.806Z,101820.19
2023-02-01T05:10:02.163Z,101831.81
2023-02-01T05:10:33.575Z,101823.38
2023-02-01T05:11:05.159Z,101833.09
2023-02-01T05:11:54.941Z,101822.28
2023-02-01T05:12:45.226Z,101828.81
2023-02-01T05:13:35.342Z,101825.78
2023-02-01T05:14:06.931Z,101812.25
2023-02-01T05:14:38.320Z,101829.59
2023-02-01T05:15:09.853Z,101828.47
2023-02-01T05:15:41.321Z,101818.47
2023-02-01T05:16:12.869Z,101820.38
2023-02-01T05:16:44.330Z,101815.75
2023-02-01T05:18:05.236Z,101815.28
2023-02-01T05:18:36.570Z,101820.69
2023-02-01T05:19:08.028Z,101819.72
2023-02-01T05:19:39.391Z,101827.22
2023-02-01T05:20:11.365Z,101822.09
2023-02-01T05:20:43.002Z,101825.63
2023-02-01T05:21:14.335Z,101821.94
2023-02-01T05:21:45.737Z,101822.75
2023-02-01T05:22:17.204Z,101832.13
2023-02-01T05:22:48.612Z,101825.13
2023-02-01T05:23:19.993Z,101821.94
2023-02-01T05:24:10.117Z,101826.25
2023-02-01T05:24:41.525Z,101825.44
2023-02-01T05:25:12.927Z,101821.94
2023-02-01T05:25:44.398Z,101823.53
2023-02-01T05:27:21.761Z,101811.75
2023-02-01T05:27:54.671Z,101815.41
2023-02-01T05:28:26.515Z,101823.22
2023-02-01T05:28:58.719Z,101826.72
2023-02-01T05:29:30.127Z,101821.31
2023-02-01T05:30:01.824Z,101819.25
2023-02-01T05:30:36.035Z,101837.53
2023-02-01T05:31:11.673Z,101834.53
2023-02-01T05:31:46.181Z,101834.53
2023-02-01T05:32:22.846Z,101836.13
2023-02-01T05:32:54.491Z,101839.13
2023-02-01T05:33:25.929Z,101838.50
2023-02-01T05:33:57.269Z,101845.50
2023-02-01T05:34:28.741Z,101822.59
2023-02-01T05:35:18.469Z,101845.50
2023-02-01T05:35:51.363Z,101833.09
2023-02-01T05:36:23.085Z,101837.41
2023-02-01T05:36:54.489Z,101839.31
2023-02-01T05:37:26.121Z,101840.09
2023-02-01T05:37:57.484Z,101831.50
2023-02-01T05:38:30.621Z,101833.56
2023-02-01T05:39:02.270Z,101833.56
2023-02-01T05:39:33.830Z,101835.47
2023-02-01T05:40:05.730Z,101826.88
2023-02-01T05:40:37.174Z,101833.88
2023-02-01T05:41:08.532Z,101831.50
2023-02-01T05:41:40.109Z,101841.69
2023-02-01T05:42:11.682Z,101842.00
2023-02-01T05:42:43.227Z,101841.69
2023-02-01T05:43:14.575Z,101838.19
2023-02-01T05:43:46.047Z,101840.22
2023-02-01T05:44:17.499Z,101843.28
2023-02-01T05:44:48.990Z,101844.84
2023-02-01T05:45:20.393Z,101843.72
2023-02-01T05:45:54.676Z,101841.03
2023-02-01T05:46:26.318Z,101823.88
2023-02-01T05:46:57.757Z,101837.09
2023-02-01T05:47:29.303Z,101844.84
2023-02-01T05:48:00.639Z,101831.97
2023-02-01T05:48:32.242Z,101843.72
2023-02-01T05:49:04.772Z,101833.88
2023-02-01T05:49:36.199Z,101847.09
2023-02-01T05:50:08.155Z,101837.22
2023-02-01T05:50:40.294Z,101842.16
2023-02-01T05:51:13.362Z,101842.63
2023-02-01T05:51:44.766Z,101836.28
2023-02-01T05:52:20.220Z,101843.41
2023-02-01T05:52:51.615Z,101832.59
2023-02-01T05:53:23.025Z,101845.31
2023-02-01T05:53:54.527Z,101840.72
2023-02-01T05:54:26.015Z,101836.91
2023-02-01T05:54:57.487Z,101842.00
2023-02-01T05:55:28.851Z,101839.91
2023-02-01T05:56:00.301Z,101846.28
2023-02-01T05:56:31.711Z,101839.28
2023-02-01T05:57:03.253Z,101844.69
2023-02-01T05:57:34.708Z,101849.00
2023-02-01T05:58:06.618Z,101846.59
2023-02-01T05:58:38.027Z,101833.41
2023-02-01T05:59:10.658Z,101831.47
2023-02-01T05:59:42.430Z,101842.47
2023-02-01T06:00:23.833Z,101844.38
2023-02-01T06:00:55.670Z,101848.38
2023-02-01T06:02:17.039Z,101845.66
2023-02-01T06:02:48.574Z,101842.94
2023-02-01T06:03:20.161Z,101848.03
2023-02-01T06:03:51.613Z,101849.16
2023-02-01T06:04:23.026Z,101847.25
2023-02-01T06:04:54.454Z,101840.25
2023-02-01T06:05:25.918Z,101848.38
2023-02-01T06:05:57.278Z,101849.63
2023-02-01T06:06:28.658Z,101846.78
2023-02-01T06:07:00.172Z,101848.03
2023-02-01T06:07:33.516Z,101845.34
2023-02-01T06:08:05.002Z,101850.28
2023-02-01T06:09:25.304Z,101852.66
2023-02-01T06:09:56.707Z,101842.47
2023-02-01T06:10:28.075Z,101856.47
2023-02-01T06:11:50.775Z,101849.97
2023-02-01T06:12:22.132Z,101853.47
2023-02-01T06:12:53.763Z,101843.44
2023-02-01T06:13:25.417Z,101857.75
2023-02-01T06:13:56.824Z,101849.63
2023-02-01T06:14:28.762Z,101851.56
2023-02-01T06:15:00.209Z,101848.03
2023-02-01T06:15:32.515Z,101835.31
2023-02-01T06:16:04.195Z,101846.94
2023-02-01T06:16:35.774Z,101841.53
2023-02-01T06:17:07.879Z,101834.19
2023-02-01T06:17:42.144Z,101843.44
2023-02-01T06:18:13.619Z,101837.53
2023-02-01T06:18:44.967Z,101837.06
2023-02-01T06:19:16.546Z,101840.56
2023-02-01T06:19:49.326Z,101827.81
2023-02-01T06:20:20.995Z,101827.03
2023-02-01T06:20:56.692Z,101842.16
2023-02-01T06:21:28.094Z,101843.75
2023-02-01T06:21:59.697Z,101845.34
2023-02-01T06:22:31.165Z,101840.56
2023-02-01T06:23:02.565Z,101830.53
2023-02-01T06:23:35.079Z,101831.16
2023-02-01T06:24:07.072Z,101836.75
2023-02-01T06:24:38.515Z,101839.28
2023-02-01T06:25:10.943Z,101839.75
2023-02-01T06:25:42.340Z,101848.03
2023-02-01T06:26:13.743Z,101841.34
2023-02-01T06:26:45.200Z,101845.19
2023-02-01T06:27:16.668Z,101841.84
2023-02-01T06:27:48.328Z,101844.06
2023-02-01T06:28:20.054Z,101839.75
2023-02-01T06:28:51.476Z,101838.34
2023-02-01T06:29:23.069Z,101856.47
2023-02-01T06:29:56.016Z,101841.34
2023-02-01T06:30:27.711Z,101848.69
2023-02-01T06:31:03.605Z,101845.19
2023-02-01T06:31:35.162Z,101850.59
2023-02-01T06:32:06.688Z,101850.59
2023-02-01T06:32:38.024Z,101848.50
2023-02-01T06:33:09.418Z,101851.69
2023-02-01T06:33:41.386Z,101843.41
2023-02-01T06:34:12.729Z,101851.22
2023-02-01T06:34:44.461Z,101854.72
2023-02-01T06:35:17.182Z,101853.13
2023-02-01T06:35:48.704Z,101849.63
2023-02-01T06:36:22.049Z,101853.13
2023-02-01T06:36:54.133Z,101853.75
2023-02-01T06:37:31.430Z,101857.25
2023-02-01T06:38:02.919Z,101849.94
2023-02-01T06:38:37.729Z,101853.75
2023-02-01T06:39:09.132Z,101853.31
2023-02-01T06:39:40.566Z,101856.81
2023-02-01T06:40:12.280Z,101859.53
2023-02-01T06:40:43.723Z,101860.28
2023-02-01T06:41:15.836Z,101862.22
2023-02-01T06:41:49.484Z,101859.03
2023-02-01T06:42:20.907Z,101849.97
2023-02-01T06:42:52.324Z,101849.97
2023-02-01T06:43:28.257Z,101869.06
2023-02-01T06:44:18.018Z,101860.94
2023-02-01T06:44:49.346Z,101856.97
2023-02-01T06:45:20.669Z,101861.09
2023-02-01T06:45:52.888Z,101869.38
2023-02-01T06:46:24.239Z,101858.06
2023-02-01T06:46:55.966Z,101861.91
2023-02-01T06:47:27.620Z,101861.09
2023-02-01T06:48:01.886Z,101867.94
2023-02-01T06:48:33.863Z,101870.81
2023-02-01T06:49:05.465Z,101859.81
2023-02-01T06:49:37.146Z,101868.41
2023-02-01T06:50:09.180Z,101870.31
2023-02-01T06:50:40.594Z,101864.13
2023-02-01T06:51:27.502Z,101863.63
2023-02-01T06:52:01.055Z,101865.22
2023-02-01T06:52:32.516Z,101863.63